sensor_id;sensor_type;location;lat;lon;timestamp;P1;durP1;ratioP1;P2;durP2;ratioP2
1122;SDS011;548;48.778;9.252;2023-02-15T10:26:47;32.30;;;29.07;;
1122;SDS011;548;48.778;9.252;2023-02-15T10:29:47;32.87;;;29.93;;
1122;SDS011;548;48.778;9.252;2023-02-15T10:32:58;35.13;;;31.87;;
1122;SDS011;548;48.778;9.252;2023-02-15T10:35:33;34.30;;;30.80;;
1122;SDS011;548;48.778;9.252;2023-02-15T10:38:19;32.03;;;28.83;;
1122;SDS011;548;48.778;9.252;2023-02-15T10:40:53;30.93;;;28.00;;
1122;SDS011;548;48.778;9.252;2023-02-15T10:44:02;30.23;;;27.63;;
1122;SDS011;548;48.778;9.252;2023-02-15T10:46:39;33.03;;;29.63;;
1122;SDS011;548;48.778;9.252;2023-02-15T10:49:46;33.40;;;30.10;;
1122;SDS011;548;48.778;9.252;2023-02-15T10:52:58;33.50;;;30.80;;
1122;SDS011;548;48.778;9.252;2023-02-15T10:57:21;33.20;;;29.87;;
1122;SDS011;548;48.778;9.252;2023-02-15T11:04:56;31.70;;;29.03;;
1122;SDS011;548;48.778;9.252;2023-02-15T11:07:35;32.50;;;29.70;;
1122;SDS011;548;48.778;9.252;2023-02-15T11:10:11;31.20;;;28.53;;
1122;SDS011;548;48.778;9.252;2023-02-15T11:12:48;33.83;;;30.30;;
1122;SDS011;548;48.778;9.252;2023-02-15T11:15:16;33.33;;;30.20;;
1122;SDS011;548;48.778;9.252;2023-02-15T11:17:48;34.13;;;31.27;;
1122;SDS011;548;48.778;9.252;2023-02-15T11:20:24;33.20;;;30.23;;
1122;SDS011;548;48.778;9.252;2023-02-15T11:22:54;32.80;;;29.87;;
1122;SDS011;548;48.778;9.252;2023-02-15T11:25:23;33.00;;;30.17;;
1122;SDS011;548;48.778;9.252;2023-02-15T11:27:54;34.27;;;31.40;;
1122;SDS011;548;48.778;9.252;2023-02-15T11:30:22;33.73;;;30.77;;
1122;SDS011;548;48.778;9.252;2023-02-15T11:32:51;32.50;;;29.60;;
1122;SDS011;548;48.778;9.252;2023-02-15T11:35:24;32.47;;;29.70;;
1122;SDS011;548;48.778;9.252;2023-02-15T11:37:54;32.47;;;29.80;;
1122;SDS011;548;48.778;9.252;2023-02-15T11:40:27;32.37;;;29.87;;
1122;SDS011;548;48.778;9.252;2023-02-15T11:42:56;30.90;;;28.27;;
1122;SDS011;548;48.778;9.252;2023-02-15T11:45:29;30.83;;;28.30;;
1122;SDS011;548;48.778;9.252;2023-02-15T11:47:58;31.73;;;29.13;;
1122;SDS011;548;48.778;9.252;2023-02-15T11:50:27;31.57;;;28.97;;
1122;SDS011;548;48.778;9.252;2023-02-15T11:52:57;32.67;;;29.93;;
1122;SDS011;548;48.778;9.252;2023-02-15T11:55:26;31.30;;;28.73;;
1122;SDS011;548;48.778;9.252;2023-02-15T11:57:55;32.03;;;29.30;;
1122;SDS011;548;48.778;9.252;2023-02-15T12:00:29;29.73;;;27.40;;
1122;SDS011;548;48.778;9.252;2023-02-15T12:03:01;29.80;;;27.10;;
1122;SDS011;548;48.778;9.252;2023-02-15T12:05:34;30.43;;;28.00;;
1122;SDS011;548;48.778;9.252;2023-02-15T12:08:03;31.03;;;28.40;;
1122;SDS011;548;48.778;9.252;2023-02-15T12:10:40;32.07;;;29.57;;
1122;SDS011;548;48.778;9.252;2023-02-15T12:13:13;30.23;;;27.97;;
1122;SDS011;548;48.778;9.252;2023-02-15T12:15:42;31.00;;;28.30;;
1122;SDS011;548;48.778;9.252;2023-02-15T12:18:21;29.27;;;26.87;;
1122;SDS011;548;48.778;9.252;2023-02-15T12:21:02;31.57;;;29.37;;
1122;SDS011;548;48.778;9.252;2023-02-15T12:23:31;28.93;;;26.53;;
1122;SDS011;548;48.778;9.252;2023-02-15T12:25:58;30.40;;;28.00;;
1122;SDS011;548;48.778;9.252;2023-02-15T12:28:26;28.50;;;26.40;;
1122;SDS011;548;48.778;9.252;2023-02-15T12:30:59;30.33;;;27.73;;
1122;SDS011;548;48.778;9.252;2023-02-15T12:33:28;29.83;;;27.73;;
1122;SDS011;548;48.778;9.252;2023-02-15T12:36:01;31.37;;;28.27;;
1122;SDS011;548;48.778;9.252;2023-02-15T12:38:34;29.33;;;27.13;;
1122;SDS011;548;48.778;9.252;2023-02-15T12:41:03;29.03;;;26.73;;
1122;SDS011;548;48.778;9.252;2023-02-15T12:43:32;30.40;;;27.90;;
1122;SDS011;548;48.778;9.252;2023-02-15T12:48:47;30.63;;;28.30;;
1122;SDS011;548;48.778;9.252;2023-02-15T12:51:31;29.90;;;27.80;;
1122;SDS011;548;48.778;9.252;2023-02-15T12:54:15;31.53;;;28.93;;
1122;SDS011;548;48.778;9.252;2023-02-15T12:56:43;29.07;;;26.70;;
1122;SDS011;548;48.778;9.252;2023-02-15T12:59:12;28.80;;;26.30;;
1122;SDS011;548;48.778;9.252;2023-02-15T13:01:40;27.30;;;25.20;;
1122;SDS011;548;48.778;9.252;2023-02-15T13:04:14;29.13;;;26.73;;
1122;SDS011;548;48.778;9.252;2023-02-15T13:06:48;30.07;;;27.60;;
1122;SDS011;548;48.778;9.252;2023-02-15T13:09:17;28.07;;;25.80;;
1122;SDS011;548;48.778;9.252;2023-02-15T13:11:46;28.33;;;26.23;;
1122;SDS011;548;48.778;9.252;2023-02-15T13:14:17;28.43;;;26.03;;
1122;SDS011;548;48.778;9.252;2023-02-15T13:16:46;26.87;;;24.93;;
1122;SDS011;548;48.778;9.252;2023-02-15T13:19:14;29.97;;;27.60;;
1122;SDS011;548;48.778;9.252;2023-02-15T13:21:43;29.73;;;27.10;;
1122;SDS011;548;48.778;9.252;2023-02-15T13:24:17;33.50;;;30.50;;
1122;SDS011;548;48.778;9.252;2023-02-15T13:26:46;29.43;;;26.93;;
1122;SDS011;548;48.778;9.252;2023-02-15T13:29:15;30.23;;;27.67;;
1122;SDS011;548;48.778;9.252;2023-02-15T13:31:47;29.40;;;26.90;;
1122;SDS011;548;48.778;9.252;2023-02-15T13:34:16;30.50;;;28.13;;
1122;SDS011;548;48.778;9.252;2023-02-15T13:36:49;29.03;;;26.83;;
1122;SDS011;548;48.778;9.252;2023-02-15T13:39:24;32.20;;;28.93;;
1122;SDS011;548;48.778;9.252;2023-02-15T13:41:58;33.17;;;29.83;;
1122;SDS011;548;48.778;9.252;2023-02-15T13:44:35;30.83;;;28.03;;
1122;SDS011;548;48.778;9.252;2023-02-15T13:47:26;32.73;;;29.83;;
1122;SDS011;548;48.778;9.252;2023-02-15T13:50:07;32.57;;;29.17;;
1122;SDS011;548;48.778;9.252;2023-02-15T13:52:46;33.37;;;30.33;;
1122;SDS011;548;48.778;9.252;2023-02-15T13:55:23;32.93;;;30.20;;
1122;SDS011;548;48.778;9.252;2023-02-15T13:58:05;34.17;;;30.90;;
1122;SDS011;548;48.778;9.252;2023-02-15T14:00:52;33.30;;;30.20;;
1122;SDS011;548;48.778;9.252;2023-02-15T14:03:36;33.00;;;29.60;;
1122;SDS011;548;48.778;9.252;2023-02-15T14:09:40;33.43;;;30.33;;
1122;SDS011;548;48.778;9.252;2023-02-15T14:15:05;31.90;;;28.30;;
1122;SDS011;548;48.778;9.252;2023-02-15T14:17:42;33.67;;;30.20;;
1122;SDS011;548;48.778;9.252;2023-02-15T14:20:18;30.83;;;27.83;;
1122;SDS011;548;48.778;9.252;2023-02-15T14:22:49;33.50;;;29.93;;
1122;SDS011;548;48.778;9.252;2023-02-15T14:25:25;32.70;;;29.70;;
1122;SDS011;548;48.778;9.252;2023-02-15T14:27:59;32.57;;;29.53;;
1122;SDS011;548;48.778;9.252;2023-02-15T14:30:33;35.10;;;31.67;;
1122;SDS011;548;48.778;9.252;2023-02-15T14:33:04;33.27;;;30.23;;
1122;SDS011;548;48.778;9.252;2023-02-15T14:35:34;32.97;;;29.50;;
1122;SDS011;548;48.778;9.252;2023-02-15T14:38:03;34.60;;;31.30;;
1122;SDS011;548;48.778;9.252;2023-02-15T14:40:38;33.90;;;30.70;;
1122;SDS011;548;48.778;9.252;2023-02-15T14:43:44;33.13;;;30.00;;
1122;SDS011;548;48.778;9.252;2023-02-15T14:46:18;34.47;;;31.23;;
1122;SDS011;548;48.778;9.252;2023-02-15T14:48:51;33.23;;;29.47;;
1122;SDS011;548;48.778;9.252;2023-02-15T14:51:53;34.83;;;31.37;;
1122;SDS011;548;48.778;9.252;2023-02-15T14:57:22;32.47;;;29.30;;
1122;SDS011;548;48.778;9.252;2023-02-15T14:59:52;33.13;;;29.90;;
1122;SDS011;548;48.778;9.252;2023-02-15T15:02:23;34.77;;;31.67;;
1122;SDS011;548;48.778;9.252;2023-02-15T15:04:55;33.27;;;30.10;;
1122;SDS011;548;48.778;9.252;2023-02-15T15:07:25;35.20;;;31.90;;
1122;SDS011;548;48.778;9.252;2023-02-15T15:09:58;32.00;;;29.00;;
1122;SDS011;548;48.778;9.252;2023-02-15T15:12:38;31.50;;;28.60;;
1122;SDS011;548;48.778;9.252;2023-02-15T15:15:09;33.77;;;30.67;;
1122;SDS011;548;48.778;9.252;2023-02-15T15:17:51;32.10;;;29.27;;
1122;SDS011;548;48.778;9.252;2023-02-15T15:20:41;33.87;;;29.73;;
1122;SDS011;548;48.778;9.252;2023-02-15T15:28:54;32.03;;;29.03;;
1122;SDS011;548;48.778;9.252;2023-02-15T15:31:24;31.17;;;28.37;;
1122;SDS011;548;48.778;9.252;2023-02-15T15:34:16;33.33;;;30.03;;
1122;SDS011;548;48.778;9.252;2023-02-15T15:40:25;31.53;;;28.50;;
1122;SDS011;548;48.778;9.252;2023-02-15T15:43:16;33.17;;;29.67;;
1122;SDS011;548;48.778;9.252;2023-02-15T15:46:26;30.37;;;27.40;;
1122;SDS011;548;48.778;9.252;2023-02-15T15:49:10;32.00;;;28.90;;
1122;SDS011;548;48.778;9.252;2023-02-15T15:51:41;31.70;;;28.83;;
1122;SDS011;548;48.778;9.252;2023-02-15T15:54:14;32.30;;;29.57;;
1122;SDS011;548;48.778;9.252;2023-02-15T15:56:49;31.00;;;27.87;;
1122;SDS011;548;48.778;9.252;2023-02-15T15:59:20;31.30;;;28.60;;
1122;SDS011;548;48.778;9.252;2023-02-15T16:01:51;33.20;;;29.93;;
1122;SDS011;548;48.778;9.252;2023-02-15T16:04:23;30.00;;;27.40;;
1122;SDS011;548;48.778;9.252;2023-02-15T16:06:51;30.17;;;26.77;;
1122;SDS011;548;48.778;9.252;2023-02-15T16:09:20;31.43;;;27.37;;
1122;SDS011;548;48.778;9.252;2023-02-15T16:11:49;32.10;;;28.80;;
1122;SDS011;548;48.778;9.252;2023-02-15T16:14:20;33.53;;;30.27;;
1122;SDS011;548;48.778;9.252;2023-02-15T16:16:53;34.00;;;30.50;;
1122;SDS011;548;48.778;9.252;2023-02-15T16:19:23;30.47;;;27.43;;
1122;SDS011;548;48.778;9.252;2023-02-15T16:21:52;31.87;;;28.53;;
1122;SDS011;548;48.778;9.252;2023-02-15T16:24:31;33.97;;;30.63;;
1122;SDS011;548;48.778;9.252;2023-02-15T16:27:10;30.00;;;27.20;;
1122;SDS011;548;48.778;9.252;2023-02-15T16:29:50;31.43;;;28.27;;
1122;SDS011;548;48.778;9.252;2023-02-15T16:32:19;35.00;;;31.20;;
1122;SDS011;548;48.778;9.252;2023-02-15T16:34:50;41.93;;;32.83;;
1122;SDS011;548;48.778;9.252;2023-02-15T16:37:23;39.93;;;33.50;;
1122;SDS011;548;48.778;9.252;2023-02-15T16:39:52;36.10;;;32.30;;
1122;SDS011;548;48.778;9.252;2023-02-15T16:42:22;38.73;;;34.67;;
1122;SDS011;548;48.778;9.252;2023-02-15T16:44:54;36.83;;;33.53;;
1122;SDS011;548;48.778;9.252;2023-02-15T16:47:27;36.80;;;32.93;;
1122;SDS011;548;48.778;9.252;2023-02-15T16:49:57;33.53;;;30.50;;
1122;SDS011;548;48.778;9.252;2023-02-15T16:52:27;33.97;;;30.60;;
1122;SDS011;548;48.778;9.252;2023-02-15T16:54:59;32.83;;;29.77;;
1122;SDS011;548;48.778;9.252;2023-02-15T16:57:29;34.90;;;31.63;;
1122;SDS011;548;48.778;9.252;2023-02-15T17:00:00;33.80;;;30.57;;
1122;SDS011;548;48.778;9.252;2023-02-15T17:02:31;36.20;;;32.60;;
1122;SDS011;548;48.778;9.252;2023-02-15T17:05:01;31.80;;;28.93;;
1122;SDS011;548;48.778;9.252;2023-02-15T17:07:33;36.07;;;32.67;;
1122;SDS011;548;48.778;9.252;2023-02-15T17:10:15;36.30;;;31.30;;
1122;SDS011;548;48.778;9.252;2023-02-15T17:12:53;37.77;;;33.80;;
1122;SDS011;548;48.778;9.252;2023-02-15T17:15:26;36.27;;;32.57;;
1122;SDS011;548;48.778;9.252;2023-02-15T17:18:00;38.57;;;34.80;;
1122;SDS011;548;48.778;9.252;2023-02-15T17:20:30;34.67;;;31.37;;
1122;SDS011;548;48.778;9.252;2023-02-15T17:22:58;35.50;;;31.87;;
1122;SDS011;548;48.778;9.252;2023-02-15T17:25:28;43.43;;;34.30;;
1122;SDS011;548;48.778;9.252;2023-02-15T17:28:01;35.77;;;32.10;;
1122;SDS011;548;48.778;9.252;2023-02-15T17:30:28;39.20;;;35.47;;
1122;SDS011;548;48.778;9.252;2023-02-15T17:32:57;38.27;;;34.50;;
1122;SDS011;548;48.778;9.252;2023-02-15T17:35:27;44.47;;;34.63;;
1122;SDS011;548;48.778;9.252;2023-02-15T17:38:05;36.40;;;32.47;;
1122;SDS011;548;48.778;9.252;2023-02-15T17:40:40;38.80;;;34.67;;
1122;SDS011;548;48.778;9.252;2023-02-15T17:43:07;43.53;;;37.10;;
1122;SDS011;548;48.778;9.252;2023-02-15T17:45:35;39.77;;;35.73;;
1122;SDS011;548;48.778;9.252;2023-02-15T17:48:06;40.03;;;35.87;;
1122;SDS011;548;48.778;9.252;2023-02-15T17:50:40;40.73;;;36.73;;
1122;SDS011;548;48.778;9.252;2023-02-15T17:53:07;36.10;;;32.57;;
1122;SDS011;548;48.778;9.252;2023-02-15T17:55:34;38.40;;;34.50;;
1122;SDS011;548;48.778;9.252;2023-02-15T17:58:03;38.27;;;34.17;;
